sensor_id;sensor_type;location;lat;lon;timestamp;P1;durP1;ratioP1;P2;durP2;ratioP2
35917;SDS011;22011;59.912;30.300;2022-07-23T00:01:01;15.50;;;9.10;;
35917;SDS011;22011;59.912;30.300;2022-07-23T00:03:29;11.20;;;9.38;;
35917;SDS011;22011;59.912;30.300;2022-07-23T00:05:58;11.07;;;9.00;;
35917;SDS011;22011;59.912;30.300;2022-07-23T00:08:26;13.93;;;9.30;;
35917;SDS011;22011;59.912;30.300;2022-07-23T00:10:53;13.77;;;9.45;;
35917;SDS011;22011;59.912;30.300;2022-07-23T00:13:21;11.27;;;8.23;;
35917;SDS011;22011;59.912;30.300;2022-07-23T00:15:48;11.43;;;9.23;;
35917;SDS011;22011;59.912;30.300;2022-07-23T00:18:16;11.27;;;9.65;;
35917;SDS011;22011;59.912;30.300;2022-07-23T00:20:44;13.75;;;9.80;;
35917;SDS011;22011;59.912;30.300;2022-07-23T00:23:13;8.90;;;8.00;;
35917;SDS011;22011;59.912;30.300;2022-07-23T00:25:40;10.63;;;9.48;;
35917;SDS011;22011;59.912;30.300;2022-07-23T00:28:08;12.73;;;8.75;;
35917;SDS011;22011;59.912;30.300;2022-07-23T00:30:36;10.73;;;9.30;;
35917;SDS011;22011;59.912;30.300;2022-07-23T00:33:05;13.90;;;9.82;;
35917;SDS011;22011;59.912;30.300;2022-07-23T00:35:35;10.73;;;9.15;;
35917;SDS011;22011;59.912;30.300;2022-07-23T00:38:03;11.73;;;9.38;;
35917;SDS011;22011;59.912;30.300;2022-07-23T00:40:33;13.15;;;10.07;;
35917;SDS011;22011;59.912;30.300;2022-07-23T00:43:01;11.10;;;9.70;;
35917;SDS011;22011;59.912;30.300;2022-07-23T00:45:29;10.27;;;9.27;;
35917;SDS011;22011;59.912;30.300;2022-07-23T00:47:56;10.55;;;9.45;;
35917;SDS011;22011;59.912;30.300;2022-07-23T00:50:24;11.68;;;9.27;;
35917;SDS011;22011;59.912;30.300;2022-07-23T00:52:52;12.48;;;8.95;;
35917;SDS011;22011;59.912;30.300;2022-07-23T00:57:51;12.00;;;8.88;;
35917;SDS011;22011;59.912;30.300;2022-07-23T01:00:20;13.80;;;9.07;;
35917;SDS011;22011;59.912;30.300;2022-07-23T01:02:48;10.15;;;7.60;;
35917;SDS011;22011;59.912;30.300;2022-07-23T01:05:16;10.40;;;9.40;;
35917;SDS011;22011;59.912;30.300;2022-07-23T01:07:47;13.63;;;9.07;;
35917;SDS011;22011;59.912;30.300;2022-07-23T01:10:15;12.82;;;9.65;;
35917;SDS011;22011;59.912;30.300;2022-07-23T01:13:00;13.88;;;9.90;;
35917;SDS011;22011;59.912;30.300;2022-07-23T01:15:28;10.00;;;9.10;;
35917;SDS011;22011;59.912;30.300;2022-07-23T01:17:56;13.05;;;9.88;;
35917;SDS011;22011;59.912;30.300;2022-07-23T01:20:24;9.60;;;8.60;;
35917;SDS011;22011;59.912;30.300;2022-07-23T01:22:54;15.77;;;9.98;;
35917;SDS011;22011;59.912;30.300;2022-07-23T01:25:23;12.50;;;8.65;;
35917;SDS011;22011;59.912;30.300;2022-07-23T01:27:56;10.45;;;9.20;;
35917;SDS011;22011;59.912;30.300;2022-07-23T01:30:24;13.13;;;11.80;;
35917;SDS011;22011;59.912;30.300;2022-07-23T01:32:53;12.33;;;11.03;;
35917;SDS011;22011;59.912;30.300;2022-07-23T01:35:21;13.27;;;10.07;;
35917;SDS011;22011;59.912;30.300;2022-07-23T01:37:50;13.43;;;10.07;;
35917;SDS011;22011;59.912;30.300;2022-07-23T01:40:21;11.18;;;10.07;;
35917;SDS011;22011;59.912;30.300;2022-07-23T01:42:48;11.77;;;10.37;;
35917;SDS011;22011;59.912;30.300;2022-07-23T01:45:16;14.82;;;10.52;;
35917;SDS011;22011;59.912;30.300;2022-07-23T01:47:48;14.40;;;11.40;;
35917;SDS011;22011;59.912;30.300;2022-07-23T01:50:16;10.23;;;9.15;;
35917;SDS011;22011;59.912;30.300;2022-07-23T01:52:56;16.48;;;9.75;;
35917;SDS011;22011;59.912;30.300;2022-07-23T01:55:26;11.82;;;10.27;;
35917;SDS011;22011;59.912;30.300;2022-07-23T01:57:53;12.45;;;10.80;;
35917;SDS011;22011;59.912;30.300;2022-07-23T02:00:26;11.63;;;10.43;;
35917;SDS011;22011;59.912;30.300;2022-07-23T02:02:54;13.25;;;10.05;;
35917;SDS011;22011;59.912;30.300;2022-07-23T02:05:22;11.20;;;9.95;;
35917;SDS011;22011;59.912;30.300;2022-07-23T02:07:50;17.85;;;10.88;;
35917;SDS011;22011;59.912;30.300;2022-07-23T02:10:17;11.05;;;9.73;;
35917;SDS011;22011;59.912;30.300;2022-07-23T02:12:46;12.60;;;11.20;;
35917;SDS011;22011;59.912;30.300;2022-07-23T02:15:14;14.07;;;10.98;;
35917;SDS011;22011;59.912;30.300;2022-07-23T02:17:42;16.15;;;11.40;;
35917;SDS011;22011;59.912;30.300;2022-07-23T02:20:10;13.88;;;11.38;;
35917;SDS011;22011;59.912;30.300;2022-07-23T02:22:38;13.70;;;11.55;;
35917;SDS011;22011;59.912;30.300;2022-07-23T02:25:09;15.43;;;11.95;;
35917;SDS011;22011;59.912;30.300;2022-07-23T02:27:37;14.02;;;11.95;;
35917;SDS011;22011;59.912;30.300;2022-07-23T02:30:07;13.40;;;11.65;;
35917;SDS011;22011;59.912;30.300;2022-07-23T02:32:36;13.80;;;10.88;;
35917;SDS011;22011;59.912;30.300;2022-07-23T02:35:05;12.55;;;11.35;;
35917;SDS011;22011;59.912;30.300;2022-07-23T02:37:33;19.45;;;11.00;;
35917;SDS011;22011;59.912;30.300;2022-07-23T02:40:01;15.57;;;10.98;;
35917;SDS011;22011;59.912;30.300;2022-07-23T02:42:31;13.52;;;11.35;;
35917;SDS011;22011;59.912;30.300;2022-07-23T02:44:59;13.70;;;10.70;;
35917;SDS011;22011;59.912;30.300;2022-07-23T02:47:28;12.48;;;11.15;;
35917;SDS011;22011;59.912;30.300;2022-07-23T02:49:59;13.80;;;11.10;;
35917;SDS011;22011;59.912;30.300;2022-07-23T02:52:28;12.47;;;10.97;;
35917;SDS011;22011;59.912;30.300;2022-07-23T02:54:56;14.13;;;11.98;;
35917;SDS011;22011;59.912;30.300;2022-07-23T02:57:23;12.43;;;11.05;;
35917;SDS011;22011;59.912;30.300;2022-07-23T02:59:51;13.23;;;11.52;;
35917;SDS011;22011;59.912;30.300;2022-07-23T03:02:19;12.70;;;10.75;;
35917;SDS011;22011;59.912;30.300;2022-07-23T03:04:49;13.15;;;10.30;;
35917;SDS011;22011;59.912;30.300;2022-07-23T03:07:17;13.25;;;11.20;;
35917;SDS011;22011;59.912;30.300;2022-07-23T03:09:45;13.27;;;10.10;;
35917;SDS011;22011;59.912;30.300;2022-07-23T03:12:12;11.60;;;10.40;;
35917;SDS011;22011;59.912;30.300;2022-07-23T03:14:40;12.68;;;10.48;;
35917;SDS011;22011;59.912;30.300;2022-07-23T03:17:08;10.80;;;9.70;;
35917;SDS011;22011;59.912;30.300;2022-07-23T03:19:36;11.63;;;10.52;;
35917;SDS011;22011;59.912;30.300;2022-07-23T03:22:06;12.05;;;10.75;;
35917;SDS011;22011;59.912;30.300;2022-07-23T03:24:33;12.82;;;10.60;;
35917;SDS011;22011;59.912;30.300;2022-07-23T03:27:19;15.27;;;10.25;;
35917;SDS011;22011;59.912;30.300;2022-07-23T03:29:47;11.40;;;9.75;;
35917;SDS011;22011;59.912;30.300;2022-07-23T03:32:16;14.33;;;10.20;;
35917;SDS011;22011;59.912;30.300;2022-07-23T03:34:44;13.85;;;9.77;;
35917;SDS011;22011;59.912;30.300;2022-07-23T03:37:13;12.52;;;10.23;;
35917;SDS011;22011;59.912;30.300;2022-07-23T03:39:41;10.45;;;9.43;;
35917;SDS011;22011;59.912;30.300;2022-07-23T03:42:09;11.25;;;9.63;;
35917;SDS011;22011;59.912;30.300;2022-07-23T03:44:37;9.50;;;8.60;;
35917;SDS011;22011;59.912;30.300;2022-07-23T03:47:05;12.98;;;9.95;;
35917;SDS011;22011;59.912;30.300;2022-07-23T03:49:33;12.05;;;9.98;;
35917;SDS011;22011;59.912;30.300;2022-07-23T03:52:01;17.13;;;11.40;;
35917;SDS011;22011;59.912;30.300;2022-07-23T03:54:31;13.75;;;10.60;;
35917;SDS011;22011;59.912;30.300;2022-07-23T03:56:59;12.37;;;10.43;;
35917;SDS011;22011;59.912;30.300;2022-07-23T03:59:26;13.30;;;10.25;;
35917;SDS011;22011;59.912;30.300;2022-07-23T04:01:54;17.58;;;12.23;;
35917;SDS011;22011;59.912;30.300;2022-07-23T04:04:22;13.48;;;12.13;;
35917;SDS011;22011;59.912;30.300;2022-07-23T04:06:50;14.35;;;11.05;;
35917;SDS011;22011;59.912;30.300;2022-07-23T04:09:18;13.13;;;10.93;;
35917;SDS011;22011;59.912;30.300;2022-07-23T04:11:47;11.82;;;10.30;;
35917;SDS011;22011;59.912;30.300;2022-07-23T04:14:15;12.48;;;10.27;;
35917;SDS011;22011;59.912;30.300;2022-07-23T04:16:43;10.73;;;9.70;;
35917;SDS011;22011;59.912;30.300;2022-07-23T04:19:11;11.90;;;10.15;;
35917;SDS011;22011;59.912;30.300;2022-07-23T04:21:56;12.27;;;11.02;;
35917;SDS011;22011;59.912;30.300;2022-07-23T04:24:24;12.52;;;10.27;;
35917;SDS011;22011;59.912;30.300;2022-07-23T04:26:53;10.57;;;9.35;;
35917;SDS011;22011;59.912;30.300;2022-07-23T04:29:21;9.10;;;8.05;;
35917;SDS011;22011;59.912;30.300;2022-07-23T04:31:50;11.45;;;10.32;;
35917;SDS011;22011;59.912;30.300;2022-07-23T04:34:18;13.95;;;9.85;;
35917;SDS011;22011;59.912;30.300;2022-07-23T04:36:45;11.77;;;10.32;;
35917;SDS011;22011;59.912;30.300;2022-07-23T04:39:13;13.57;;;10.13;;
35917;SDS011;22011;59.912;30.300;2022-07-23T04:41:41;10.60;;;9.60;;
35917;SDS011;22011;59.912;30.300;2022-07-23T04:44:11;12.65;;;9.95;;
35917;SDS011;22011;59.912;30.300;2022-07-23T04:46:39;10.50;;;9.38;;
35917;SDS011;22011;59.912;30.300;2022-07-23T04:49:07;14.63;;;9.68;;
35917;SDS011;22011;59.912;30.300;2022-07-23T04:51:35;11.05;;;9.68;;
35917;SDS011;22011;59.912;30.300;2022-07-23T04:54:03;11.88;;;8.75;;
35917;SDS011;22011;59.912;30.300;2022-07-23T04:56:31;12.20;;;9.40;;
35917;SDS011;22011;59.912;30.300;2022-07-23T04:58:58;13.90;;;9.05;;
35917;SDS011;22011;59.912;30.300;2022-07-23T05:01:27;13.30;;;9.18;;
35917;SDS011;22011;59.912;30.300;2022-07-23T05:03:55;9.40;;;8.52;;
35917;SDS011;22011;59.912;30.300;2022-07-23T05:06:26;10.05;;;9.07;;
35917;SDS011;22011;59.912;30.300;2022-07-23T05:08:54;13.10;;;10.05;;
35917;SDS011;22011;59.912;30.300;2022-07-23T05:11:22;9.75;;;8.70;;
35917;SDS011;22011;59.912;30.300;2022-07-23T05:13:50;11.38;;;9.55;;
35917;SDS011;22011;59.912;30.300;2022-07-23T05:16:20;12.27;;;10.00;;
35917;SDS011;22011;59.912;30.300;2022-07-23T05:18:49;10.95;;;8.10;;
35917;SDS011;22011;59.912;30.300;2022-07-23T05:21:16;10.73;;;9.38;;
35917;SDS011;22011;59.912;30.300;2022-07-23T05:23:44;14.20;;;10.77;;
35917;SDS011;22011;59.912;30.300;2022-07-23T05:26:12;13.65;;;10.25;;
35917;SDS011;22011;59.912;30.300;2022-07-23T05:28:40;12.07;;;10.40;;
35917;SDS011;22011;59.912;30.300;2022-07-23T05:31:08;14.05;;;10.02;;
35917;SDS011;22011;59.912;30.300;2022-07-23T05:33:36;11.82;;;9.50;;
35917;SDS011;22011;59.912;30.300;2022-07-23T05:36:05;13.20;;;8.57;;
35917;SDS011;22011;59.912;30.300;2022-07-23T05:38:39;12.63;;;9.88;;
35917;SDS011;22011;59.912;30.300;2022-07-23T05:41:07;11.93;;;9.45;;
35917;SDS011;22011;59.912;30.300;2022-07-23T05:43:34;11.40;;;10.35;;
35917;SDS011;22011;59.912;30.300;2022-07-23T05:46:08;10.10;;;9.00;;
35917;SDS011;22011;59.912;30.300;2022-07-23T05:51:12;18.83;;;10.55;;
35917;SDS011;22011;59.912;30.300;2022-07-23T05:53:40;10.98;;;8.95;;
35917;SDS011;22011;59.912;30.300;2022-07-23T05:56:11;24.45;;;11.88;;
35917;SDS011;22011;59.912;30.300;2022-07-23T05:58:39;13.05;;;10.45;;
35917;SDS011;22011;59.912;30.300;2022-07-23T06:01:07;14.05;;;10.30;;
35917;SDS011;22011;59.912;30.300;2022-07-23T06:03:45;13.88;;;9.07;;
35917;SDS011;22011;59.912;30.300;2022-07-23T06:06:14;15.65;;;10.15;;
35917;SDS011;22011;59.912;30.300;2022-07-23T06:08:42;13.40;;;8.77;;
35917;SDS011;22011;59.912;30.300;2022-07-23T06:11:11;16.83;;;10.80;;
35917;SDS011;22011;59.912;30.300;2022-07-23T06:13:38;14.35;;;9.77;;
35917;SDS011;22011;59.912;30.300;2022-07-23T06:16:06;12.60;;;8.45;;
35917;SDS011;22011;59.912;30.300;2022-07-23T06:18:34;11.65;;;9.32;;
35917;SDS011;22011;59.912;30.300;2022-07-23T06:21:02;18.02;;;9.35;;
35917;SDS011;22011;59.912;30.300;2022-07-23T06:23:33;18.50;;;9.00;;
35917;SDS011;22011;59.912;30.300;2022-07-23T06:26:01;13.50;;;8.98;;
35917;SDS011;22011;59.912;30.300;2022-07-23T06:28:29;16.77;;;9.50;;
35917;SDS011;22011;59.912;30.300;2022-07-23T06:30:56;11.38;;;8.93;;
35917;SDS011;22011;59.912;30.300;2022-07-23T06:33:24;17.63;;;8.43;;
35917;SDS011;22011;59.912;30.300;2022-07-23T06:35:51;15.20;;;9.48;;
35917;SDS011;22011;59.912;30.300;2022-07-23T06:38:20;21.50;;;9.80;;
35917;SDS011;22011;59.912;30.300;2022-07-23T06:40:49;9.85;;;8.07;;
35917;SDS011;22011;59.912;30.300;2022-07-23T06:43:17;12.50;;;8.65;;
35917;SDS011;22011;59.912;30.300;2022-07-23T06:45:45;13.63;;;8.68;;
35917;SDS011;22011;59.912;30.300;2022-07-23T06:48:12;22.88;;;8.35;;
35917;SDS011;22011;59.912;30.300;2022-07-23T06:50:40;19.05;;;7.90;;
35917;SDS011;22011;59.912;30.300;2022-07-23T06:53:08;15.25;;;9.00;;
35917;SDS011;22011;59.912;30.300;2022-07-23T06:55:40;14.40;;;7.32;;
35917;SDS011;22011;59.912;30.300;2022-07-23T06:58:09;17.33;;;9.00;;
35917;SDS011;22011;59.912;30.300;2022-07-23T07:00:38;13.77;;;7.80;;
35917;SDS011;22011;59.912;30.300;2022-07-23T07:03:06;14.52;;;8.68;;
35917;SDS011;22011;59.912;30.300;2022-07-23T07:05:33;9.20;;;7.15;;
35917;SDS011;22011;59.912;30.300;2022-07-23T07:08:01;13.15;;;7.88;;
35917;SDS011;22011;59.912;30.300;2022-07-23T07:10:29;20.00;;;8.10;;
35917;SDS011;22011;59.912;30.300;2022-07-23T07:12:56;11.95;;;8.15;;
35917;SDS011;22011;59.912;30.300;2022-07-23T07:15:25;13.82;;;8.48;;
35917;SDS011;22011;59.912;30.300;2022-07-23T07:17:53;9.85;;;7.72;;
35917;SDS011;22011;59.912;30.300;2022-07-23T07:20:20;14.65;;;7.03;;
35917;SDS011;22011;59.912;30.300;2022-07-23T07:22:49;14.05;;;6.60;;
35917;SDS011;22011;59.912;30.300;2022-07-23T07:25:16;17.58;;;7.15;;
35917;SDS011;22011;59.912;30.300;2022-07-23T07:27:45;20.65;;;7.93;;
35917;SDS011;22011;59.912;30.300;2022-07-23T07:30:12;19.98;;;7.55;;
35917;SDS011;22011;59.912;30.300;2022-07-23T07:32:42;17.65;;;7.57;;
35917;SDS011;22011;59.912;30.300;2022-07-23T07:35:09;16.48;;;7.75;;
35917;SDS011;22011;59.912;30.300;2022-07-23T07:37:37;10.85;;;7.82;;
35917;SDS011;22011;59.912;30.300;2022-07-23T07:40:05;12.15;;;6.45;;
35917;SDS011;22011;59.912;30.300;2022-07-23T07:42:34;11.48;;;6.60;;
35917;SDS011;22011;59.912;30.300;2022-07-23T07:45:01;13.00;;;6.93;;
35917;SDS011;22011;59.912;30.300;2022-07-23T07:47:29;16.90;;;6.82;;
35917;SDS011;22011;59.912;30.300;2022-07-23T07:49:58;18.50;;;7.28;;
35917;SDS011;22011;59.912;30.300;2022-07-23T07:52:26;7.45;;;6.65;;
35917;SDS011;22011;59.912;30.300;2022-07-23T07:54:54;14.07;;;7.30;;
35917;SDS011;22011;59.912;30.300;2022-07-23T07:57:21;18.92;;;6.82;;
35917;SDS011;22011;59.912;30.300;2022-07-23T07:59:49;9.27;;;6.05;;
35917;SDS011;22011;59.912;30.300;2022-07-23T08:02:16;13.70;;;6.78;;
35917;SDS011;22011;59.912;30.300;2022-07-23T08:04:44;19.25;;;7.60;;
35917;SDS011;22011;59.912;30.300;2022-07-23T08:07:13;10.55;;;7.57;;
35917;SDS011;22011;59.912;30.300;2022-07-23T08:09:41;19.00;;;8.45;;
35917;SDS011;22011;59.912;30.300;2022-07-23T08:12:08;10.48;;;7.10;;
35917;SDS011;22011;59.912;30.300;2022-07-23T08:14:36;16.23;;;7.45;;
35917;SDS011;22011;59.912;30.300;2022-07-23T08:17:03;11.70;;;7.20;;
35917;SDS011;22011;59.912;30.300;2022-07-23T08:19:31;10.75;;;7.18;;
35917;SDS011;22011;59.912;30.300;2022-07-23T08:21:59;15.23;;;7.13;;
35917;SDS011;22011;59.912;30.300;2022-07-23T08:24:27;15.55;;;8.93;;
35917;SDS011;22011;59.912;30.300;2022-07-23T08:26:55;9.05;;;6.70;;
35917;SDS011;22011;59.912;30.300;2022-07-23T08:29:23;16.92;;;7.50;;
35917;SDS011;22011;59.912;30.300;2022-07-23T08:31:50;17.90;;;7.75;;
35917;SDS011;22011;59.912;30.300;2022-07-23T08:34:18;17.85;;;8.25;;
35917;SDS011;22011;59.912;30.300;2022-07-23T08:36:45;19.63;;;7.57;;
35917;SDS011;22011;59.912;30.300;2022-07-23T08:39:13;23.55;;;7.70;;
35917;SDS011;22011;59.912;30.300;2022-07-23T08:41:42;16.67;;;7.63;;
35917;SDS011;22011;59.912;30.300;2022-07-23T08:44:10;27.67;;;7.97;;
35917;SDS011;22011;59.912;30.300;2022-07-23T08:46:38;17.90;;;6.32;;
35917;SDS011;22011;59.912;30.300;2022-07-23T08:49:06;20.80;;;7.05;;
35917;SDS011;22011;59.912;30.300;2022-07-23T08:51:34;14.35;;;6.80;;
35917;SDS011;22011;59.912;30.300;2022-07-23T08:54:02;11.52;;;7.13;;
35917;SDS011;22011;59.912;30.300;2022-07-23T08:56:30;16.52;;;6.50;;
35917;SDS011;22011;59.912;30.300;2022-07-23T08:59:00;15.45;;;6.50;;
35917;SDS011;22011;59.912;30.300;2022-07-23T09:01:27;24.45;;;7.30;;
35917;SDS011;22011;59.912;30.300;2022-07-23T09:03:55;11.85;;;6.50;;
35917;SDS011;22011;59.912;30.300;2022-07-23T09:06:22;13.63;;;7.30;;
35917;SDS011;22011;59.912;30.300;2022-07-23T09:08:50;9.10;;;6.57;;
35917;SDS011;22011;59.912;30.300;2022-07-23T09:11:18;9.60;;;7.20;;
35917;SDS011;22011;59.912;30.300;2022-07-23T09:13:46;18.52;;;7.28;;
35917;SDS011;22011;59.912;30.300;2022-07-23T09:21:17;13.27;;;6.00;;
35917;SDS011;22011;59.912;30.300;2022-07-23T09:23:48;8.30;;;5.97;;
35917;SDS011;22011;59.912;30.300;2022-07-23T09:26:29;7.20;;;6.43;;
35917;SDS011;22011;59.912;30.300;2022-07-23T09:28:59;12.90;;;6.43;;
35917;SDS011;22011;59.912;30.300;2022-07-23T09:31:34;22.30;;;8.35;;
35917;SDS011;22011;59.912;30.300;2022-07-23T09:34:11;17.77;;;6.93;;
35917;SDS011;22011;59.912;30.300;2022-07-23T09:36:41;16.33;;;6.95;;
35917;SDS011;22011;59.912;30.300;2022-07-23T09:39:10;15.30;;;6.65;;
35917;SDS011;22011;59.912;30.300;2022-07-23T09:41:40;15.13;;;6.05;;
35917;SDS011;22011;59.912;30.300;2022-07-23T09:44:11;16.67;;;5.93;;
35917;SDS011;22011;59.912;30.300;2022-07-23T09:46:41;12.55;;;5.47;;
35917;SDS011;22011;59.912;30.300;2022-07-23T09:49:11;18.63;;;6.22;;
35917;SDS011;22011;59.912;30.300;2022-07-23T09:51:47;28.13;;;7.05;;
35917;SDS011;22011;59.912;30.300;2022-07-23T09:54:24;17.45;;;6.80;;
35917;SDS011;22011;59.912;30.300;2022-07-23T09:56:54;16.98;;;6.30;;
35917;SDS011;22011;59.912;30.300;2022-07-23T09:59:23;11.20;;;5.93;;
35917;SDS011;22011;59.912;30.300;2022-07-23T10:01:56;12.38;;;6.43;;
35917;SDS011;22011;59.912;30.300;2022-07-23T10:04:26;13.95;;;6.72;;
35917;SDS011;22011;59.912;30.300;2022-07-23T10:07:13;10.45;;;6.10;;
35917;SDS011;22011;59.912;30.300;2022-07-23T10:10:08;15.00;;;6.03;;
35917;SDS011;22011;59.912;30.300;2022-07-23T10:12:55;10.18;;;6.70;;
35917;SDS011;22011;59.912;30.300;2022-07-23T10:15:44;11.90;;;6.78;;
35917;SDS011;22011;59.912;30.300;2022-07-23T10:18:13;14.82;;;6.03;;
35917;SDS011;22011;59.912;30.300;2022-07-23T10:20:40;10.57;;;6.93;;
35917;SDS011;22011;59.912;30.300;2022-07-23T10:23:10;19.10;;;6.55;;
35917;SDS011;22011;59.912;30.300;2022-07-23T10:25:46;17.70;;;6.05;;
35917;SDS011;22011;59.912;30.300;2022-07-23T10:28:24;13.00;;;5.82;;
35917;SDS011;22011;59.912;30.300;2022-07-23T10:31:10;13.83;;;5.50;;
35917;SDS011;22011;59.912;30.300;2022-07-23T10:33:50;11.38;;;5.88;;
35917;SDS011;22011;59.912;30.300;2022-07-23T10:36:29;9.43;;;5.40;;
35917;SDS011;22011;59.912;30.300;2022-07-23T10:39:05;39.22;;;6.97;;
35917;SDS011;22011;59.912;30.300;2022-07-23T10:41:38;17.15;;;6.10;;
35917;SDS011;22011;59.912;30.300;2022-07-23T10:44:07;18.98;;;5.82;;
35917;SDS011;22011;59.912;30.300;2022-07-23T10:46:37;11.07;;;5.55;;
35917;SDS011;22011;59.912;30.300;2022-07-23T10:49:27;51.90;;;8.00;;
35917;SDS011;22011;59.912;30.300;2022-07-23T10:52:15;13.82;;;5.85;;
35917;SDS011;22011;59.912;30.300;2022-07-23T10:54:45;13.88;;;6.07;;
35917;SDS011;22011;59.912;30.300;2022-07-23T10:57:14;13.80;;;6.28;;
35917;SDS011;22011;59.912;30.300;2022-07-23T11:02:48;10.02;;;5.95;;
35917;SDS011;22011;59.912;30.300;2022-07-23T11:05:18;11.48;;;6.03;;
35917;SDS011;22011;59.912;30.300;2022-07-23T11:10:52;11.85;;;7.15;;
35917;SDS011;22011;59.912;30.300;2022-07-23T11:13:32;8.77;;;5.95;;
35917;SDS011;22011;59.912;30.300;2022-07-23T11:16:14;9.20;;;5.90;;
35917;SDS011;22011;59.912;30.300;2022-07-23T11:21:46;33.90;;;9.82;;
35917;SDS011;22011;59.912;30.300;2022-07-23T11:24:19;15.68;;;7.50;;
35917;SDS011;22011;59.912;30.300;2022-07-23T11:26:57;14.77;;;7.30;;
35917;SDS011;22011;59.912;30.300;2022-07-23T11:29:39;18.15;;;6.88;;
35917;SDS011;22011;59.912;30.300;2022-07-23T11:32:17;8.80;;;6.15;;
35917;SDS011;22011;59.912;30.300;2022-07-23T11:34:50;14.25;;;6.20;;
35917;SDS011;22011;59.912;30.300;2022-07-23T11:37:31;6.68;;;5.57;;
35917;SDS011;22011;59.912;30.300;2022-07-23T11:40:04;12.25;;;6.60;;
35917;SDS011;22011;59.912;30.300;2022-07-23T11:42:36;10.10;;;6.35;;
35917;SDS011;22011;59.912;30.300;2022-07-23T11:45:05;7.60;;;6.78;;
35917;SDS011;22011;59.912;30.300;2022-07-23T11:47:34;10.13;;;6.82;;
35917;SDS011;22011;59.912;30.300;2022-07-23T11:50:03;8.80;;;6.28;;
35917;SDS011;22011;59.912;30.300;2022-07-23T11:52:34;6.82;;;5.82;;
35917;SDS011;22011;59.912;30.300;2022-07-23T11:55:03;12.75;;;6.28;;
35917;SDS011;22011;59.912;30.300;2022-07-23T11:57:33;7.65;;;5.75;;
35917;SDS011;22011;59.912;30.300;2022-07-23T12:00:03;8.23;;;5.85;;
35917;SDS011;22011;59.912;30.300;2022-07-23T12:02:41;9.23;;;6.13;;
35917;SDS011;22011;59.912;30.300;2022-07-23T12:07:43;10.27;;;6.60;;
35917;SDS011;22011;59.912;30.300;2022-07-23T12:10:16;9.52;;;7.22;;
35917;SDS011;22011;59.912;30.300;2022-07-23T12:12:46;22.48;;;9.18;;
35917;SDS011;22011;59.912;30.300;2022-07-23T12:15:19;11.32;;;8.40;;
35917;SDS011;22011;59.912;30.300;2022-07-23T12:17:49;11.15;;;8.63;;
35917;SDS011;22011;59.912;30.300;2022-07-23T12:20:18;12.43;;;9.88;;
35917;SDS011;22011;59.912;30.300;2022-07-23T12:22:50;10.85;;;9.75;;
35917;SDS011;22011;59.912;30.300;2022-07-23T12:25:24;11.73;;;9.45;;
35917;SDS011;22011;59.912;30.300;2022-07-23T12:27:59;11.75;;;9.95;;
35917;SDS011;22011;59.912;30.300;2022-07-23T12:30:30;11.70;;;7.60;;
35917;SDS011;22011;59.912;30.300;2022-07-23T12:32:59;9.48;;;7.13;;
35917;SDS011;22011;59.912;30.300;2022-07-23T12:35:31;10.38;;;5.63;;
35917;SDS011;22011;59.912;30.300;2022-07-23T12:38:03;9.43;;;6.20;;
35917;SDS011;22011;59.912;30.300;2022-07-23T12:40:32;6.45;;;5.35;;
35917;SDS011;22011;59.912;30.300;2022-07-23T12:43:02;8.07;;;5.70;;
35917;SDS011;22011;59.912;30.300;2022-07-23T12:48:15;9.10;;;6.93;;
35917;SDS011;22011;59.912;30.300;2022-07-23T12:50:48;11.55;;;8.98;;
35917;SDS011;22011;59.912;30.300;2022-07-23T12:53:20;8.35;;;5.80;;
35917;SDS011;22011;59.912;30.300;2022-07-23T12:55:49;9.85;;;5.78;;
35917;SDS011;22011;59.912;30.300;2022-07-23T12:58:18;18.00;;;7.03;;
35917;SDS011;22011;59.912;30.300;2022-07-23T13:00:54;8.63;;;5.67;;
35917;SDS011;22011;59.912;30.300;2022-07-23T13:03:25;9.18;;;6.43;;
35917;SDS011;22011;59.912;30.300;2022-07-23T13:05:54;10.07;;;6.22;;
35917;SDS011;22011;59.912;30.300;2022-07-23T13:08:24;6.60;;;5.97;;
35917;SDS011;22011;59.912;30.300;2022-07-23T13:10:52;11.20;;;6.93;;
35917;SDS011;22011;59.912;30.300;2022-07-23T13:13:21;10.35;;;6.90;;
35917;SDS011;22011;59.912;30.300;2022-07-23T13:15:49;9.80;;;6.65;;
35917;SDS011;22011;59.912;30.300;2022-07-23T13:18:18;7.32;;;6.60;;
35917;SDS011;22011;59.912;30.300;2022-07-23T13:20:47;12.02;;;9.30;;
35917;SDS011;22011;59.912;30.300;2022-07-23T13:23:15;13.55;;;10.38;;
35917;SDS011;22011;59.912;30.300;2022-07-23T13:25:45;12.10;;;10.98;;
35917;SDS011;22011;59.912;30.300;2022-07-23T13:28:13;14.70;;;12.05;;
35917;SDS011;22011;59.912;30.300;2022-07-23T13:30:42;16.13;;;13.88;;
35917;SDS011;22011;59.912;30.300;2022-07-23T13:33:11;16.70;;;14.17;;
35917;SDS011;22011;59.912;30.300;2022-07-23T13:35:39;17.85;;;16.08;;
35917;SDS011;22011;59.912;30.300;2022-07-23T13:38:06;17.65;;;15.77;;
35917;SDS011;22011;59.912;30.300;2022-07-23T13:40:37;17.95;;;16.00;;
35917;SDS011;22011;59.912;30.300;2022-07-23T13:43:09;15.85;;;14.45;;
35917;SDS011;22011;59.912;30.300;2022-07-23T13:45:38;19.35;;;17.10;;
35917;SDS011;22011;59.912;30.300;2022-07-23T13:48:05;16.95;;;15.32;;
35917;SDS011;22011;59.912;30.300;2022-07-23T13:50:33;17.73;;;16.02;;
35917;SDS011;22011;59.912;30.300;2022-07-23T13:53:02;18.05;;;16.35;;
35917;SDS011;22011;59.912;30.300;2022-07-23T13:55:30;21.95;;;16.52;;
35917;SDS011;22011;59.912;30.300;2022-07-23T13:57:58;18.77;;;16.65;;
35917;SDS011;22011;59.912;30.300;2022-07-23T14:00:27;17.17;;;15.48;;
35917;SDS011;22011;59.912;30.300;2022-07-23T14:02:56;18.35;;;16.50;;
35917;SDS011;22011;59.912;30.300;2022-07-23T14:05:24;18.48;;;16.58;;
35917;SDS011;22011;59.912;30.300;2022-07-23T14:07:52;17.90;;;16.13;;
35917;SDS011;22011;59.912;30.300;2022-07-23T14:10:20;17.38;;;15.73;;
35917;SDS011;22011;59.912;30.300;2022-07-23T14:12:49;20.65;;;17.50;;
35917;SDS011;22011;59.912;30.300;2022-07-23T14:15:22;18.00;;;16.10;;
35917;SDS011;22011;59.912;30.300;2022-07-23T14:17:51;16.85;;;15.15;;
35917;SDS011;22011;59.912;30.300;2022-07-23T14:20:19;17.63;;;15.93;;
35917;SDS011;22011;59.912;30.300;2022-07-23T14:22:47;18.02;;;15.90;;
35917;SDS011;22011;59.912;30.300;2022-07-23T14:25:16;16.93;;;15.23;;
35917;SDS011;22011;59.912;30.300;2022-07-23T14:27:44;17.23;;;15.43;;
35917;SDS011;22011;59.912;30.300;2022-07-23T14:30:12;18.15;;;16.35;;
35917;SDS011;22011;59.912;30.300;2022-07-23T14:32:41;18.98;;;17.05;;
35917;SDS011;22011;59.912;30.300;2022-07-23T14:35:10;17.08;;;15.43;;
35917;SDS011;22011;59.912;30.300;2022-07-23T14:37:38;16.42;;;14.23;;
35917;SDS011;22011;59.912;30.300;2022-07-23T14:40:06;12.90;;;11.63;;
35917;SDS011;22011;59.912;30.300;2022-07-23T14:42:34;12.98;;;11.68;;
35917;SDS011;22011;59.912;30.300;2022-07-23T14:45:02;12.98;;;11.30;;
35917;SDS011;22011;59.912;30.300;2022-07-23T14:47:31;12.93;;;11.18;;
35917;SDS011;22011;59.912;30.300;2022-07-23T14:49:58;14.35;;;13.05;;
35917;SDS011;22011;59.912;30.300;2022-07-23T14:52:27;20.48;;;15.00;;
35917;SDS011;22011;59.912;30.300;2022-07-23T14:54:55;14.38;;;12.90;;
35917;SDS011;22011;59.912;30.300;2022-07-23T14:57:22;15.57;;;12.98;;